Time;durP1;ratioP1;P1;durP2;ratioP2;P2;SDS_P1;SDS_P2;PMS_P1;PMS_P2;Temp;Humidity;BMP_temperature;BMP_pressure;BME280_temperature;BME280_humidity;BME280_pressure;Samples;Min_cycle;Max_cycle;Signal;HPM_P1;HPM_P2
2022/05/04 00:00:21;;;;;;;44.45;28.73;;;8.90;99.90;;;;;;5054379;28;20102;-70
2022/05/04 00:02:47;;;;;;;45.40;28.70;;;8.90;99.90;;;;;;5053889;28;20017;-67
2022/05/04 00:05:13;;;;;;;50.55;29.67;;;9.00;99.90;;;;;;5054230;28;20051;-69
2022/05/04 00:07:39;;;;;;;47.50;27.83;;;8.90;99.90;;;;;;5054415;28;20017;-70
2022/05/04 00:10:06;;;;;;;44.70;28.02;;;9.00;99.90;;;;;;5054172;28;20029;-69
2022/05/04 00:12:33;;;;;;;44.67;28.27;;;8.90;99.90;;;;;;5054648;28;20480;-70
2022/05/04 00:14:59;;;;;;;44.33;28.58;;;8.80;99.90;;;;;;5054021;28;20052;-71
2022/05/04 00:17:25;;;;;;;46.08;28.35;;;8.70;99.90;;;;;;5054308;28;20497;-69
2022/05/04 00:19:50;;;;;;;42.72;25.60;;;8.70;99.90;;;;;;5054025;28;20029;-72
2022/05/04 00:22:20;;;;;;;44.20;27.10;;;8.60;99.90;;;;;;5053921;28;20020;-70
2022/05/04 00:24:47;;;;;;;42.40;26.10;;;8.60;99.90;;;;;;5053751;28;20053;-70
2022/05/04 00:27:15;;;;;;;39.92;25.45;;;8.50;99.90;;;;;;5053865;28;20033;-71
2022/05/04 00:29:42;;;;;;;42.65;25.20;;;8.40;99.90;;;;;;5053743;28;20029;-71
2022/05/04 00:32:08;;;;;;;38.70;25.55;;;8.40;99.90;;;;;;5054060;28;20147;-71
2022/05/04 00:34:33;;;;;;;42.45;26.67;;;8.30;99.90;;;;;;5053733;28;20025;-68
2022/05/04 00:37:01;;;;;;;37.65;23.95;;;8.30;99.90;;;;;;5053695;28;20032;-69
2022/05/04 00:39:27;;;;;;;36.20;24.13;;;8.20;99.90;;;;;;5053603;28;20033;-70
2022/05/04 00:41:53;;;;;;;35.10;23.15;;;8.10;99.90;;;;;;5053856;28;20504;-72
2022/05/04 00:44:19;;;;;;;40.35;24.30;;;8.10;99.90;;;;;;5053540;28;20044;-69
2022/05/04 00:46:44;;;;;;;39.03;26.42;;;8.00;99.90;;;;;;5035684;28;20044;-71
2022/05/04 00:49:10;;;;;;;43.22;24.60;;;7.90;99.90;;;;;;5053457;28;20029;-69
2022/05/04 00:51:37;;;;;;;41.35;26.33;;;8.00;99.90;;;;;;5053484;28;20028;-69
2022/05/04 00:54:03;;;;;;;40.95;25.65;;;8.00;99.90;;;;;;5053439;28;20060;-68
2022/05/04 00:56:30;;;;;;;44.13;26.63;;;8.00;99.90;;;;;;5053641;28;20020;-69
2022/05/04 00:58:56;;;;;;;42.28;25.20;;;8.00;99.90;;;;;;5053602;28;20109;-69
2022/05/04 01:01:28;;;;;;;43.13;25.25;;;8.00;99.90;;;;;;5053334;28;20071;-69
2022/05/04 01:03:57;;;;;;;41.95;26.02;;;8.00;99.90;;;;;;5053807;28;20029;-68
2022/05/04 01:06:24;;;;;;;42.43;26.50;;;8.00;99.90;;;;;;5053570;28;20056;-71
2022/05/04 01:08:53;;;;;;;39.83;25.15;;;8.00;99.90;;;;;;5035279;28;20413;-69
2022/05/04 01:11:19;;;;;;;41.95;25.55;;;7.90;99.90;;;;;;5053182;28;20052;-70
2022/05/04 01:14:05;;;;;;;39.22;24.67;;;7.90;99.90;;;;;;5053388;28;20052;-69
2022/05/04 01:16:32;;;;;;;43.78;24.50;;;7.80;99.90;;;;;;5053152;28;20029;-69
2022/05/04 01:18:58;;;;;;;39.30;24.42;;;7.70;99.90;;;;;;5053687;28;20021;-69
2022/05/04 01:21:24;;;;;;;37.67;24.45;;;7.60;99.90;;;;;;5053392;28;20025;-68
2022/05/04 01:23:51;;;;;;;38.90;25.08;;;7.60;99.90;;;;;;5052875;28;20045;-68
2022/05/04 01:26:18;;;;;;;39.42;24.50;;;7.60;99.90;;;;;;5053032;28;20398;-70
2022/05/04 01:28:44;;;;;;;37.53;23.75;;;7.60;99.90;;;;;;5052967;28;20021;-71
2022/05/04 01:31:10;;;;;;;38.65;25.33;;;7.60;99.90;;;;;;5053624;28;20378;-68
2022/05/04 01:33:36;;;;;;;40.80;24.77;;;7.60;99.90;;;;;;5052979;28;20028;-69
2022/05/04 01:36:02;;;;;;;37.00;24.25;;;7.50;99.90;;;;;;5052969;28;20029;-70
2022/05/04 01:38:28;;;;;;;41.47;25.08;;;7.50;99.90;;;;;;5052930;28;20017;-68
2022/05/04 01:40:53;;;;;;;42.53;25.85;;;7.50;99.90;;;;;;5052948;28;20028;-69
2022/05/04 01:43:19;;;;;;;42.00;24.98;;;7.40;99.90;;;;;;5053428;28;20075;-72
2022/05/04 01:45:45;;;;;;;39.20;23.20;;;7.30;99.90;;;;;;5052934;28;20033;-71
2022/05/04 01:48:11;;;;;;;37.47;23.02;;;7.30;99.90;;;;;;5052799;28;20029;-68
2022/05/04 01:50:36;;;;;;;37.63;22.67;;;7.30;99.90;;;;;;5053142;28;20025;-71
2022/05/04 01:53:02;;;;;;;38.35;23.80;;;7.20;99.90;;;;;;5052860;28;20104;-69
2022/05/04 01:55:32;;;;;;;40.85;24.10;;;7.20;99.90;;;;;;5053084;28;20024;-70
2022/05/04 01:57:57;;;;;;;38.97;24.42;;;7.20;99.90;;;;;;5052778;28;20024;-72
2022/05/04 02:00:23;;;;;;;44.20;25.30;;;7.20;99.90;;;;;;5053061;28;20021;-71
2022/05/04 02:02:49;;;;;;;40.28;24.25;;;7.20;99.90;;;;;;5052718;28;20385;-70
2022/05/04 02:05:15;;;;;;;39.25;25.02;;;7.20;99.90;;;;;;5052987;28;20040;-68
2022/05/04 02:07:41;;;;;;;44.67;25.88;;;7.20;99.90;;;;;;5053202;28;20025;-70
2022/05/04 02:10:07;;;;;;;40.78;25.42;;;7.20;99.90;;;;;;5052566;28;20029;-70
2022/05/04 02:12:34;;;;;;;44.80;26.35;;;7.10;99.90;;;;;;5052562;28;20032;-69
2022/05/04 02:15:01;;;;;;;48.13;28.52;;;7.10;99.90;;;;;;5052546;28;20028;-69
2022/05/04 02:17:26;;;;;;;45.17;27.30;;;7.10;99.90;;;;;;5052884;28;20466;-70
2022/05/04 02:19:52;;;;;;;45.15;26.17;;;7.20;99.90;;;;;;5052541;28;20025;-71
2022/05/04 02:22:18;;;;;;;49.70;28.00;;;7.20;99.90;;;;;;5052559;28;20055;-71
2022/05/04 02:24:43;;;;;;;50.78;29.45;;;7.20;99.90;;;;;;5052344;28;20049;-70
2022/05/04 02:27:09;;;;;;;48.15;28.63;;;7.30;99.90;;;;;;5055126;28;20103;-70
2022/05/04 02:29:35;;;;;;;48.13;28.65;;;7.30;99.90;;;;;;5056012;28;20033;-71
2022/05/04 02:32:00;;;;;;;48.83;28.23;;;7.30;99.90;;;;;;5056315;28;20025;-69
2022/05/04 02:34:26;;;;;;;54.85;30.08;;;7.30;99.90;;;;;;5056269;28;20021;-70
2022/05/04 02:39:36;;;;;;;51.72;29.25;;;7.30;99.90;;;;;;5055628;28;20036;-71
2022/05/04 02:42:02;;;;;;;50.15;28.27;;;7.10;99.90;;;;;;5056442;28;20021;-71
2022/05/04 02:44:28;;;;;;;40.67;26.50;;;7.20;99.90;;;;;;5037913;28;20048;-72
2022/05/04 02:46:54;;;;;;;41.63;25.52;;;7.10;99.90;;;;;;5055771;28;20473;-72
2022/05/04 02:49:19;;;;;;;39.45;23.00;;;7.00;99.90;;;;;;5055673;28;20037;-72
2022/05/04 02:51:45;;;;;;;39.78;24.45;;;6.90;99.90;;;;;;5055990;28;20029;-72
2022/05/04 02:54:11;;;;;;;41.00;25.00;;;6.90;99.90;;;;;;5055714;28;20079;-73
2022/05/04 02:56:37;;;;;;;52.13;27.42;;;6.80;99.90;;;;;;5055599;28;20111;-68
2022/05/04 02:59:02;;;;;;;46.83;25.75;;;6.70;99.90;;;;;;5055792;28;20036;-67
2022/05/04 03:04:12;;;;;;;40.97;24.83;;;6.70;99.90;;;;;;5055486;28;20040;-72
2022/05/04 03:06:39;;;;;;;44.88;25.05;;;6.70;99.90;;;;;;5055420;28;20025;-69
2022/05/04 03:09:06;;;;;;;48.95;26.70;;;6.70;99.90;;;;;;5055258;28;20028;-69
2022/05/04 03:14:18;;;;;;;46.28;26.48;;;6.70;99.90;;;;;;5055323;28;20554;-70
2022/05/04 03:16:44;;;;;;;43.83;25.20;;;6.70;99.90;;;;;;5055138;28;20017;-68
2022/05/04 03:19:10;;;;;;;43.10;25.42;;;6.60;99.90;;;;;;5055479;28;20035;-67
2022/05/04 03:21:36;;;;;;;43.78;26.58;;;6.60;99.90;;;;;;5055386;28;20029;-71
2022/05/04 03:24:02;;;;;;;47.45;27.63;;;6.60;99.90;;;;;;5054905;28;20052;-70
2022/05/04 03:26:28;;;;;;;47.38;29.23;;;6.70;99.90;;;;;;5055003;28;20025;-69
2022/05/04 03:28:53;;;;;;;50.90;28.42;;;6.70;99.90;;;;;;5054907;28;20033;-68
2022/05/04 03:31:19;;;;;;;50.13;29.10;;;6.70;99.90;;;;;;5054916;28;20024;-71
2022/05/04 03:33:45;;;;;;;47.80;26.73;;;6.70;99.90;;;;;;5036982;28;20485;-72
2022/05/04 03:36:11;;;;;;;49.40;27.83;;;6.60;99.90;;;;;;5055104;28;20031;-70
2022/05/04 03:38:36;;;;;;;47.47;26.83;;;6.50;99.90;;;;;;5053719;28;20056;-67
2022/05/04 03:41:02;;;;;;;45.70;25.77;;;6.50;99.90;;;;;;5054767;28;20478;-73
2022/05/04 03:43:28;;;;;;;44.65;26.33;;;6.50;99.90;;;;;;5055310;28;20473;-69
2022/05/04 03:45:54;;;;;;;52.40;28.10;;;6.40;99.90;;;;;;5054698;28;20036;-73
2022/05/04 03:48:20;;;;;;;47.35;26.85;;;6.40;99.90;;;;;;5054555;28;20067;-71
2022/05/04 03:50:46;;;;;;;56.00;28.58;;;6.40;99.90;;;;;;5054539;28;20024;-71
2022/05/04 03:53:13;;;;;;;47.03;26.20;;;6.50;99.90;;;;;;5054810;28;20074;-69
2022/05/04 03:55:39;;;;;;;51.92;28.50;;;6.40;99.90;;;;;;5054453;28;20465;-67
2022/05/04 03:58:04;;;;;;;47.60;27.42;;;6.40;99.90;;;;;;5054467;28;20036;-73
2022/05/04 04:00:30;;;;;;;44.42;24.52;;;6.40;99.90;;;;;;5054658;28;20021;-70
2022/05/04 04:02:56;;;;;;;41.72;24.35;;;6.30;99.90;;;;;;5054851;28;20032;-72
2022/05/04 04:05:23;;;;;;;45.63;25.05;;;6.30;99.90;;;;;;5054348;28;20079;-71
2022/05/04 04:07:49;;;;;;;52.00;26.87;;;6.30;99.90;;;;;;5054462;28;20473;-67
2022/05/04 04:10:15;;;;;;;50.35;25.98;;;6.40;99.90;;;;;;5054211;28;20029;-70
2022/05/04 04:12:41;;;;;;;47.00;24.98;;;6.30;99.90;;;;;;5054117;28;20021;-67
2022/05/04 04:15:07;;;;;;;38.88;23.90;;;6.20;99.90;;;;;;5054025;28;20486;-74
2022/05/04 04:17:32;;;;;;;38.83;22.55;;;6.10;99.90;;;;;;5054039;28;20023;-71
2022/05/04 04:22:46;;;;;;;37.60;23.83;;;6.00;99.90;;;;;;5034561;28;20045;-71
2022/05/04 04:25:12;;;;;;;35.50;22.38;;;5.90;99.90;;;;;;5053560;28;20515;-72
2022/05/04 04:27:38;;;;;;;36.85;22.42;;;5.90;99.90;;;;;;5054127;28;20074;-67
2022/05/04 04:30:04;;;;;;;34.60;22.10;;;5.90;99.90;;;;;;5053757;28;20036;-70
2022/05/04 04:32:29;;;;;;;32.55;21.30;;;5.90;99.90;;;;;;5053733;28;20074;-67
2022/05/04 04:34:55;;;;;;;36.65;21.92;;;5.90;99.90;;;;;;5054264;28;20033;-69
2022/05/04 04:37:20;;;;;;;34.47;21.77;;;6.00;99.90;;;;;;5053979;28;20059;-70
2022/05/04 04:39:46;;;;;;;40.40;23.75;;;6.00;99.90;;;;;;5053694;28;20036;-70
2022/05/04 04:42:13;;;;;;;40.20;22.77;;;6.20;99.90;;;;;;5053648;28;20398;-73
2022/05/04 04:44:38;;;;;;;47.45;24.10;;;6.30;99.90;;;;;;5053884;28;20151;-72
2022/05/04 04:47:05;;;;;;;46.10;23.23;;;6.30;99.90;;;;;;5053824;28;20112;-71
2022/05/04 04:49:30;;;;;;;42.20;24.25;;;6.30;99.90;;;;;;5053152;28;20478;-72
2022/05/04 04:51:56;;;;;;;37.53;23.30;;;6.30;99.90;;;;;;5053716;28;20110;-68
2022/05/04 04:54:22;;;;;;;54.28;27.67;;;6.30;99.90;;;;;;5053674;28;20501;-73
2022/05/04 04:56:47;;;;;;;55.70;27.45;;;6.40;99.90;;;;;;5053683;28;20021;-74
2022/05/04 04:59:13;;;;;;;62.63;30.08;;;6.40;99.90;;;;;;5053404;28;20076;-70
2022/05/04 05:01:38;;;;;;;60.33;30.20;;;6.40;99.90;;;;;;5053316;28;20035;-71
2022/05/04 05:04:04;;;;;;;55.65;29.40;;;6.50;99.90;;;;;;5053334;28;20055;-68
2022/05/04 05:06:30;;;;;;;76.35;31.33;;;6.50;99.90;;;;;;5053271;28;20029;-68
2022/05/04 05:08:56;;;;;;;59.28;29.60;;;6.50;99.90;;;;;;5053142;28;20029;-68
2022/05/04 05:11:22;;;;;;;52.28;29.17;;;6.60;99.90;;;;;;5053251;28;20025;-71
2022/05/04 05:16:31;;;;;;;50.67;28.48;;;6.70;99.90;;;;;;5053169;28;20036;-72
2022/05/04 05:18:57;;;;;;;50.03;26.25;;;6.90;99.90;;;;;;5053122;28;20503;-70
2022/05/04 05:21:22;;;;;;;42.00;25.65;;;6.90;99.90;;;;;;5053124;28;20025;-68
2022/05/04 05:23:48;;;;;;;40.47;24.73;;;7.10;99.90;;;;;;5053274;28;20041;-70
2022/05/04 05:26:14;;;;;;;35.45;23.05;;;7.20;99.90;;;;;;5053369;28;20029;-71
2022/05/04 05:28:39;;;;;;;38.97;24.25;;;7.30;99.90;;;;;;5053213;28;20498;-70
2022/05/04 05:31:05;;;;;;;40.03;24.33;;;7.40;99.90;;;;;;5053287;28;20025;-72
2022/05/04 05:33:30;;;;;;;41.35;25.23;;;7.50;99.90;;;;;;5053305;28;20029;-71
2022/05/04 05:35:56;;;;;;;51.67;26.70;;;7.50;99.90;;;;;;5052989;28;20037;-68
2022/05/04 05:38:26;;;;;;;73.10;28.02;;;7.60;99.90;;;;;;5052969;28;20091;-72
2022/05/04 05:40:51;;;;;;;48.50;28.33;;;7.60;99.90;;;;;;5053233;28;20029;-70
2022/05/04 05:43:17;;;;;;;50.60;26.98;;;7.70;99.90;;;;;;5053171;28;20363;-69
2022/05/04 05:45:43;;;;;;;46.47;25.95;;;8.00;99.90;;;;;;5053168;28;20025;-69
2022/05/04 05:48:08;;;;;;;79.63;27.98;;;8.10;99.90;;;;;;5053086;28;20025;-68
2022/05/04 05:50:34;;;;;;;48.90;27.20;;;8.20;99.90;;;;;;5053453;28;20044;-68
2022/05/04 05:53:01;;;;;;;43.92;27.35;;;8.30;99.90;;;;;;5052823;28;20024;-68
2022/05/04 05:55:26;;;;;;;41.83;25.88;;;8.50;99.90;;;;;;5052786;28;20392;-72
2022/05/04 05:57:52;;;;;;;47.75;27.90;;;8.60;99.90;;;;;;5052730;28;20025;-70
2022/05/04 06:00:18;;;;;;;44.20;26.70;;;8.70;99.90;;;;;;5034879;28;20023;-68
2022/05/04 06:02:45;;;;;;;43.83;26.40;;;8.80;99.90;;;;;;5056021;28;20440;-68
2022/05/04 06:05:10;;;;;;;42.60;25.70;;;8.90;99.90;;;;;;5056580;28;20032;-73
2022/05/04 06:07:37;;;;;;;47.20;26.90;;;9.10;99.90;;;;;;5056524;28;20389;-70
2022/05/04 06:10:04;;;;;;;47.38;25.95;;;9.30;99.90;;;;;;5038536;28;20025;-68
2022/05/04 06:12:29;;;;;;;47.72;25.80;;;9.40;99.90;;;;;;5056398;28;20021;-69
2022/05/04 06:14:55;;;;;;;49.17;25.00;;;9.40;99.90;;;;;;5038431;28;20090;-70
2022/05/04 06:17:21;;;;;;;52.42;24.55;;;9.60;99.90;;;;;;5056314;28;20096;-72
2022/05/04 06:19:47;;;;;;;34.03;23.58;;;9.60;99.90;;;;;;5056291;28;20107;-71
2022/05/04 06:22:13;;;;;;;35.60;23.75;;;9.60;99.90;;;;;;5056284;28;20025;-71
2022/05/04 06:24:38;;;;;;;36.58;23.17;;;9.80;99.90;;;;;;5056074;28;20043;-73
2022/05/04 06:27:04;;;;;;;33.20;22.95;;;9.90;99.90;;;;;;5056444;28;20043;-67
2022/05/04 06:35:05;;;;;;;38.17;24.92;;;10.30;99.90;;;;;;5056090;28;20507;-69
2022/05/04 06:37:31;;;;;;;33.25;22.90;;;10.40;99.90;;;;;;5055937;28;20025;-70
2022/05/04 06:39:57;;;;;;;30.70;22.77;;;10.50;99.90;;;;;;5055927;28;20112;-71
2022/05/04 06:42:23;;;;;;;29.40;21.88;;;10.60;99.90;;;;;;5056148;28;20028;-72
2022/05/04 06:44:48;;;;;;;41.03;22.40;;;10.80;99.90;;;;;;5055859;28;20436;-69
2022/05/04 06:47:14;;;;;;;30.95;21.60;;;11.00;99.90;;;;;;5055822;28;20032;-71
2022/05/04 06:49:39;;;;;;;26.05;20.50;;;11.00;99.90;;;;;;5055656;28;20028;-70
2022/05/04 06:52:06;;;;;;;26.52;20.40;;;11.40;99.90;;;;;;5056027;28;20021;-73
2022/05/04 06:54:32;;;;;;;27.83;21.45;;;11.70;99.90;;;;;;5055666;28;20024;-71
2022/05/04 06:56:58;;;;;;;27.38;20.50;;;11.70;99.90;;;;;;5055617;28;20017;-68
2022/05/04 06:59:23;;;;;;;26.85;21.08;;;11.90;99.90;;;;;;5055846;28;20064;-71
2022/05/04 07:01:49;;;;;;;24.92;19.48;;;12.00;99.90;;;;;;5055822;28;20430;-67
2022/05/04 07:04:16;;;;;;;25.42;20.05;;;12.30;99.90;;;;;;5055543;28;20051;-72
2022/05/04 07:06:42;;;;;;;24.88;19.90;;;12.60;99.90;;;;;;5055426;28;20151;-72
2022/05/04 07:09:07;;;;;;;27.25;18.98;;;13.10;99.90;;;;;;5055585;28;20116;-72
2022/05/04 07:11:33;;;;;;;22.80;18.13;;;13.80;99.90;;;;;;5055469;28;20028;-72
2022/05/04 07:13:58;;;;;;;23.92;18.85;;;13.70;99.90;;;;;;5055549;28;20048;-70
2022/05/04 07:16:24;;;;;;;22.58;18.42;;;13.80;99.90;;;;;;5055190;28;20075;-72
2022/05/04 07:18:50;;;;;;;24.67;18.35;;;13.80;99.90;;;;;;5055776;28;20060;-71
2022/05/04 07:21:15;;;;;;;25.38;19.55;;;14.00;99.90;;;;;;5037281;28;20037;-71
2022/05/04 07:23:41;;;;;;;22.08;18.02;;;13.90;99.90;;;;;;5054954;28;20045;-70
2022/05/04 07:26:07;;;;;;;22.40;18.80;;;14.10;99.90;;;;;;5055133;28;20496;-71
2022/05/04 07:28:33;;;;;;;21.02;17.67;;;14.10;99.90;;;;;;5054996;28;20069;-67
2022/05/04 07:30:58;;;;;;;24.67;18.95;;;14.20;99.90;;;;;;5055001;28;20432;-72
2022/05/04 07:33:24;;;;;;;21.35;17.98;;;14.40;99.90;;;;;;5055221;28;20025;-75
2022/05/04 07:35:50;;;;;;;21.88;17.30;;;14.70;99.90;;;;;;5055459;28;20116;-70
2022/05/04 07:38:15;;;;;;;21.35;18.48;;;15.60;99.90;;;;;;5054869;28;20032;-74
2022/05/04 07:43:25;;;;;;;20.00;17.05;;;16.30;99.90;;;;;;5055078;28;20558;-68
2022/05/04 07:45:51;;;;;;;21.60;17.60;;;16.90;99.90;;;;;;5054966;28;20029;-72
2022/05/04 07:48:16;;;;;;;21.65;17.75;;;18.70;99.90;;;;;;5054478;28;20082;-69
2022/05/04 07:50:42;;;;;;;20.73;17.90;;;18.90;99.90;;;;;;5054588;28;20520;-69
2022/05/04 07:53:08;;;;;;;19.60;17.48;;;20.40;99.90;;;;;;5054568;28;20074;-70
2022/05/04 07:55:36;;;;;;;20.75;18.27;;;21.70;99.90;;;;;;5054747;28;20028;-68
2022/05/04 07:58:02;;;;;;;20.80;18.60;;;21.80;99.30;;;;;;5054417;28;20028;-69
2022/05/04 08:05:56;;;;;;;19.40;17.27;;;23.00;95.80;;;;;;5054614;28;20060;-70
2022/05/04 08:08:21;;;;;;;17.45;15.73;;;25.80;92.50;;;;;;5054175;28;20029;-70
2022/05/04 08:10:47;;;;;;;19.77;17.77;;;27.60;89.90;;;;;;5054449;28;20021;-69
2022/05/04 08:13:13;;;;;;;17.98;16.17;;;29.00;81.90;;;;;;5054200;28;20032;-72
2022/05/04 08:15:38;;;;;;;18.15;16.30;;;29.50;77.60;;;;;;5054063;28;20101;-69
2022/05/04 08:18:05;;;;;;;19.35;17.45;;;29.90;76.30;;;;;;5053968;28;20025;-69
2022/05/04 08:20:30;;;;;;;20.77;16.50;;;30.30;73.20;;;;;;5054339;28;20025;-69
2022/05/04 08:22:57;;;;;;;19.27;17.38;;;30.30;72.80;;;;;;5054108;28;20086;-68
2022/05/04 08:25:23;;;;;;;18.88;16.98;;;31.40;69.60;;;;;;5053111;28;20098;-70
2022/05/04 08:27:49;;;;;;;17.63;15.82;;;31.30;68.60;;;;;;5054173;28;20021;-71
2022/05/04 08:30:16;;;;;;;17.90;16.10;;;31.50;67.00;;;;;;5053799;28;20086;-71
2022/05/04 08:32:44;;;;;;;15.93;14.20;;;32.20;67.10;;;;;;5053847;28;20104;-68
2022/05/04 08:35:12;;;;;;;17.30;15.43;;;32.20;64.70;;;;;;5053781;28;20100;-71
2022/05/04 08:37:38;;;;;;;16.98;15.27;;;32.60;63.50;;;;;;5054264;28;20022;-70
2022/05/04 08:40:04;;;;;;;16.23;14.63;;;33.30;61.60;;;;;;5053713;28;20029;-69
2022/05/04 08:42:29;;;;;;;15.65;13.88;;;33.40;57.70;;;;;;5053678;28;20111;-71
2022/05/04 08:44:57;;;;;;;13.60;12.23;;;32.90;56.60;;;;;;5053631;28;20060;-74
2022/05/04 08:47:25;;;;;;;13.90;12.50;;;33.20;57.30;;;;;;5053610;28;20024;-72
2022/05/04 08:49:51;;;;;;;14.40;12.93;;;34.30;55.70;;;;;;5053962;28;20025;-71
2022/05/04 08:52:18;;;;;;;13.85;12.43;;;34.80;54.20;;;;;;5053775;28;20028;-72
2022/05/04 08:54:44;;;;;;;14.48;12.95;;;34.80;53.20;;;;;;5053724;28;20090;-73
2022/05/04 08:57:10;;;;;;;14.90;13.38;;;34.70;52.20;;;;;;5053405;28;20116;-73
2022/05/04 08:59:36;;;;;;;14.48;12.65;;;34.30;50.80;;;;;;5053428;28;20501;-69
2022/05/04 09:02:02;;;;;;;14.18;12.73;;;34.30;51.20;;;;;;5053310;28;20024;-74
2022/05/04 09:04:31;;;;;;;16.25;13.48;;;34.80;51.00;;;;;;5053279;28;20521;-72
2022/05/04 09:07:00;;;;;;;14.77;13.15;;;35.10;50.10;;;;;;5035785;28;20033;-69
2022/05/04 09:09:26;;;;;;;13.82;12.35;;;35.20;49.40;;;;;;5053091;28;20025;-70
2022/05/04 09:11:51;;;;;;;13.38;11.77;;;34.80;49.20;;;;;;5053164;28;20036;-69
2022/05/04 09:14:20;;;;;;;13.43;12.10;;;35.60;48.80;;;;;;5053475;28;20104;-70
2022/05/04 09:16:46;;;;;;;15.25;11.20;;;36.00;47.70;;;;;;5053062;28;20028;-69
2022/05/04 09:19:17;;;;;;;12.43;11.13;;;36.20;47.10;;;;;;5053404;28;20037;-71
2022/05/04 09:21:46;;;;;;;12.27;11.07;;;35.80;47.20;;;;;;5053137;28;20025;-72
2022/05/04 09:24:14;;;;;;;12.55;11.25;;;35.70;47.00;;;;;;5052887;28;20053;-73
2022/05/04 09:26:41;;;;;;;;;;;35.90;46.60;;;;;;5053525;28;20025;-73
2022/05/04 09:29:06;;;;;;;;;;;35.70;46.50;;;;;;5053371;28;19959;-73
2022/05/04 09:31:33;;;;;;;;;;;35.50;46.50;;;;;;5053468;28;19909;-70
2022/05/04 09:33:59;;;;;;;;;;;35.80;45.00;;;;;;5053376;28;19927;-72
2022/05/04 09:36:33;;;;;;;;;;;35.90;45.00;;;;;;5054692;28;19911;-70
2022/05/04 09:47:19;;;;;;;;;;;35.90;45.20;;;;;;5057749;28;19951;-73
2022/05/04 09:49:46;;;;;;;;;;;35.90;46.00;;;;;;5039412;28;19908;-70
2022/05/04 09:52:14;;;;;;;;;;;36.80;44.30;;;;;;5057584;28;20349;-68
2022/05/04 09:54:39;;;;;;;;;;;37.70;44.50;;;;;;5057519;28;19940;-72
2022/05/04 09:57:06;;;;;;;;;;;37.40;44.10;;;;;;5057534;28;19940;-72
2022/05/04 09:59:36;;;;;;;;;;;36.60;44.30;;;;;;5057191;28;20000;-73
2022/05/04 10:02:04;;;;;;;;;;;36.40;43.40;;;;;;5057092;28;19905;-69
2022/05/04 10:04:32;;;;;;;;;;;36.50;42.70;;;;;;5057077;28;19908;-73
2022/05/04 10:06:58;;;;;;;;;;;36.40;43.00;;;;;;5057306;28;19912;-72
2022/05/04 10:09:23;;;;;;;;;;;37.00;42.60;;;;;;5056890;28;20288;-68
2022/05/04 10:11:57;;;;;;;;;;;36.90;44.10;;;;;;5057202;28;20017;-72
2022/05/04 10:14:23;;;;;;;;;;;37.20;43.80;;;;;;5057205;28;19912;-72
2022/05/04 10:16:51;;;;;;;;;;;37.30;43.70;;;;;;5056750;28;19905;-72
2022/05/04 10:19:19;;;;;;;;;;;37.40;44.00;;;;;;5057057;28;19905;-70
2022/05/04 10:21:48;;;;;;;;;;;37.80;44.30;;;;;;5057024;28;19905;-68
2022/05/04 10:24:16;;;;;;;;;;;37.40;44.00;;;;;;5056660;28;19913;-70
2022/05/04 10:26:44;;;;;;;;;;;37.00;43.90;;;;;;5056935;28;19943;-73
2022/05/04 10:32:07;;;;;;;;;;;36.60;44.30;;;;;;5056313;28;20350;-72
2022/05/04 10:34:33;;;;;;;;;;;36.70;44.10;;;;;;5056555;28;19904;-71
2022/05/04 10:36:58;;;;;;;;;;;36.60;44.20;;;;;;5056772;28;19958;-71
2022/05/04 10:39:24;;;;;;;;;;;37.20;43.60;;;;;;5056364;28;20327;-70
2022/05/04 10:41:50;;;;;;;;;;;36.40;43.30;;;;;;5056639;28;19932;-70
2022/05/04 10:44:16;;;;;;;;;;;37.20;41.90;;;;;;5056342;28;19908;-71
2022/05/04 10:46:45;;;;;;;;;;;37.00;42.90;;;;;;5055739;28;19911;-71
2022/05/04 10:49:13;;;;;;;;;;;36.90;43.20;;;;;;5056150;28;19909;-74
2022/05/04 10:51:39;;;;;;;;;;;35.70;44.20;;;;;;5038279;28;20336;-74
2022/05/04 10:54:05;;;;;;;;;;;36.90;42.50;;;;;;5056429;28;19988;-70
2022/05/04 10:56:42;;;;;;;;;;;36.30;42.50;;;;;;5056385;28;19932;-70
2022/05/04 10:59:07;;;;;;;;;;;36.20;44.00;;;;;;5056604;28;20398;-70
2022/05/04 11:01:34;;;;;;;;;;;37.20;43.10;;;;;;5055942;28;20003;-71
2022/05/04 11:04:03;;;;;;;;;;;36.80;43.20;;;;;;5055978;28;20370;-73
2022/05/04 11:06:30;;;;;;;;;;;37.10;43.60;;;;;;5037992;28;19912;-72
2022/05/04 11:08:57;;;;;;;;;;;36.50;43.10;;;;;;5055746;28;19912;-73
2022/05/04 11:11:23;;;;;;;;;;;36.40;43.80;;;;;;5055892;28;19948;-73
2022/05/04 11:13:50;;;;;;;;;;;36.90;43.90;;;;;;5055718;28;19904;-69
2022/05/04 11:16:16;;;;;;;;;;;36.50;43.70;;;;;;5055697;28;19923;-69
2022/05/04 11:18:42;;;;;;;;;;;35.30;43.90;;;;;;5056030;28;19905;-72
2022/05/04 11:21:11;;;;;;;;;;;36.10;43.90;;;;;;5055669;28;19905;-71
2022/05/04 11:23:36;;;;;;;;;;;36.30;44.40;;;;;;5055618;28;19909;-72
2022/05/04 11:26:02;;;;;;;;;;;36.40;44.10;;;;;;5056206;28;20265;-69
2022/05/04 11:28:28;;;;;;;;;;;35.70;43.80;;;;;;5055415;28;19913;-71
2022/05/04 11:30:53;;;;;;;;;;;35.70;43.90;;;;;;5055771;28;19904;-71
2022/05/04 11:33:18;;;;;;;;;;;35.90;43.60;;;;;;5055409;28;19912;-69
2022/05/04 11:35:44;;;;;;;;;;;34.60;44.20;;;;;;5055656;28;20315;-69
2022/05/04 11:38:17;;;;;;;;;;;31.30;46.80;;;;;;5055366;28;20369;-70
2022/05/04 11:40:43;;;;;;;;;;;30.00;47.80;;;;;;5055296;28;19959;-70
2022/05/04 11:43:10;;;;;;;;;;;29.60;48.10;;;;;;5055813;28;19905;-68
2022/05/04 11:45:35;;;;;;;;;;;27.90;51.80;;;;;;5055095;28;20323;-68
2022/05/04 11:48:01;;;;;;;;;;;26.70;53.30;;;;;;5055052;28;19905;-72
2022/05/04 11:50:28;;;;;;;;;;;26.30;53.80;;;;;;5054921;28;19908;-72
2022/05/04 11:52:53;;;;;;;;;;;26.40;54.60;;;;;;5054819;28;19912;-72
2022/05/04 11:55:19;;;;;;;;;;;25.80;55.80;;;;;;5055201;28;20272;-68
2022/05/04 11:57:45;;;;;;;;;;;25.00;55.30;;;;;;5054832;28;19966;-70
2022/05/04 12:00:16;;;;;;;;;;;24.00;55.40;;;;;;5053910;28;19909;-69
2022/05/04 12:02:42;;;;;;;;;;;24.20;56.10;;;;;;5055420;28;19940;-69
2022/05/04 12:05:08;;;;;;;;;;;24.60;55.10;;;;;;5054797;28;19905;-68
2022/05/04 12:07:33;;;;;;;;;;;25.00;55.80;;;;;;5054761;28;19908;-69
2022/05/04 12:10:00;;;;;;;;;;;24.50;55.30;;;;;;5055166;28;20007;-69
2022/05/04 12:12:25;;;;;;;;;;;23.60;57.40;;;;;;5054640;28;19999;-69
2022/05/04 12:14:54;;;;;;;;;;;23.30;58.00;;;;;;5054469;28;19967;-70
2022/05/04 12:17:25;;;;;;;;;;;23.60;57.40;;;;;;5054539;28;19905;-70
2022/05/04 12:19:51;;;;;;;;;;;24.00;57.10;;;;;;5054529;28;19905;-70
2022/05/04 12:22:18;;;;;;;;;;;23.50;58.60;;;;;;5054487;28;20388;-70
2022/05/04 12:24:43;;;;;;;;;;;23.60;58.40;;;;;;5054390;28;19919;-71
2022/05/04 12:27:09;;;;;;;;;;;23.60;59.00;;;;;;5054418;28;19905;-71
2022/05/04 12:35:03;;;;;;;;;;;21.80;59.40;;;;;;5054308;28;19912;-74
2022/05/04 12:37:32;;;;;;;;;;;22.20;59.00;;;;;;5054188;28;19931;-71
2022/05/04 12:39:59;;;;;;;;;;;22.80;59.70;;;;;;5054721;28;19958;-70
2022/05/04 12:42:25;;;;;;;;;;;23.10;58.60;;;;;;5054121;28;19912;-70
2022/05/04 12:44:52;;;;;;;;;;;23.10;58.50;;;;;;5054411;28;19904;-73
2022/05/04 12:47:18;;;;;;;;;;;22.60;58.80;;;;;;5054070;28;19950;-70
2022/05/04 12:49:45;;;;;;;;;;;22.50;59.60;;;;;;5053967;28;19912;-68
2022/05/04 12:52:11;;;;;;;;;;;23.10;59.30;;;;;;5053992;28;19944;-72
2022/05/04 12:54:38;;;;;;;;;;;23.50;58.00;;;;;;5053881;28;20384;-71
2022/05/04 12:57:03;;;;;;;;;;;23.60;57.00;;;;;;5054447;28;20365;-71
2022/05/04 12:59:29;;;;;;;;;;;23.70;56.20;;;;;;5036019;28;19912;-69
2022/05/04 13:01:55;;;;;;;;;;;24.00;54.70;;;;;;5054404;28;19911;-69
2022/05/04 13:04:20;;;;;;;;;;;23.90;57.30;;;;;;5053810;28;20382;-69
2022/05/04 13:06:46;;;;;;;;;;;23.80;56.00;;;;;;5054283;28;20264;-68
2022/05/04 13:09:12;;;;;;;;;;;23.50;55.50;;;;;;5053658;28;20001;-71
2022/05/04 13:11:39;;;;;;;;;;;23.60;55.20;;;;;;5053765;28;20273;-69
2022/05/04 13:14:04;;;;;;;;;;;24.10;54.30;;;;;;5053673;28;19905;-71
2022/05/04 13:16:33;;;;;;;;;;;24.50;55.20;;;;;;5053649;28;19905;-68
2022/05/04 13:18:59;;;;;;;;;;;24.20;54.30;;;;;;5053616;28;19911;-72
2022/05/04 13:21:25;;;;;;;;;;;23.30;55.30;;;;;;5053868;28;19908;-72
2022/05/04 13:23:50;;;;;;;;;;;23.00;56.20;;;;;;5053369;28;19920;-72
2022/05/04 13:26:17;;;;;;;;;;;22.70;57.10;;;;;;5053513;28;19952;-73
2022/05/04 13:28:43;;;;;;;;;;;22.50;57.70;;;;;;5053430;28;20262;-71
2022/05/04 13:31:09;;;;;;;;;;;22.10;58.50;;;;;;5053550;28;19996;-71
2022/05/04 13:33:35;;;;;;;;;;;21.90;58.60;;;;;;5053470;28;19994;-71
2022/05/04 13:36:01;;;;;;;;;;;22.10;58.60;;;;;;5053711;28;19927;-70
2022/05/04 13:38:26;;;;;;;;;;;21.90;58.30;;;;;;5053417;28;19915;-70
2022/05/04 13:40:53;;;;;;;;;;;22.00;59.50;;;;;;5053676;28;19970;-72